• Join FlightAware (Why Join?)
  • Login
  • US Flag 
07:00AM EDT


 

Airport Tracker/Info


-or-


 

Live Flight TrackerFlight Track Log ✈ SCX8700 ✈ 14-Aug-2014 ✈ KMSP - KDSM

Flight Track Log - Related Links

Times and Time Zones

All times are in EDT time to prevent confusion due to time zone crossing. See the SCX8700 flight status page for this flight to view local times or setup timezone preferences in your user account.

Time Position Orientation Groundspeed Altitude Reporting Facility
EDT Latitude Longitude Course Direction KTS MPH feet Rate Location/Type
11:24AM 44.8657 -93.2366 170° South 152 175 1,200  Level FlightAware ADS-B (KSGS)
11:24AM 44.8554 -93.2343 172° South 156 180 1,900 2,220 Climbing FlightAware ADS-B (KSGS)
11:24AM 44.8473 -93.2329 173° South 177 204 2,200 1,680 Climbing FlightAware ADS-B (KFCM)
11:24AM 44.8435 -93.2322 173° South 184 212 2,300 3,000 Climbing FlightAware ADS-B (KSGS)
11:24AM 44.8391 -93.2320 179° South 192 221 2,600 3,000 Climbing FlightAware ADS-B (KSGS)
11:24AM 44.8344 -93.2327 190° South 197 227 2,800 2,400 Climbing FlightAware ADS-B (KSGS)
11:24AM 44.8302 -93.2341 197° South 201 231 3,000 2,520 Climbing FlightAware ADS-B (KSGS)
11:24AM 44.8286 -93.2349 200° South 205 236 3,100 3,000 Climbing FlightAware ADS-B (KFCM)
11:24AM 44.8264 -93.2362 206° Southwest 208 239 3,200 3,420 Climbing FlightAware ADS-B (KLVN)
11:24AM 44.8221 -93.2397 214° Southwest 215 247 3,500 3,000 Climbing FlightAware ADS-B (KLVN)
11:25AM 44.8131 -93.2490 217° Southwest 237 273 4,000 2,220 Climbing FlightAware ADS-B (KFCM)
11:25AM 44.8086 -93.2538 218° Southwest 244 281 4,100 2,400 Climbing FlightAware ADS-B (KSGS)
11:25AM 44.7944 -93.2686 217° Southwest 264 304 4,800 2,820 Climbing FlightAware ADS-B (KSGS)
11:25AM 44.7926 -93.2705 216° Southwest 266 306 4,900 3,600 Climbing FlightAware ADS-B (KFCM)
11:25AM 44.7797 -93.2835 216° Southwest 273 314 5,700 3,300 Climbing FlightAware ADS-B (KSGS)
11:25AM 44.7720 -93.2910 215° Southwest 277 319 6,000 2,400 Climbing FlightAware ADS-B (KFCM)
11:25AM 44.7631 -93.2996 215° Southwest 283 326 6,300 3,120 Climbing FlightAware ADS-B (KSGS)
11:26AM 44.7515 -93.3106 214° Southwest 286 329 7,000 3,720 Climbing FlightAware ADS-B (KFCM)
11:26AM 44.7466 -93.3151 214° Southwest 287 330 7,300 3,600 Climbing FlightAware ADS-B (KSGS)
11:26AM 44.7296 -93.3314 215° Southwest 294 338 8,200 3,720 Climbing FlightAware ADS-B (KSGS)
11:26AM 44.7280 -93.3329 215° Southwest 294 338 8,300 4,680 Climbing FlightAware ADS-B (KFCM)
11:26AM 44.7130 -93.3475 215° Southwest 298 343 9,300 4,200 Climbing FlightAware ADS-B (KSGS)
11:26AM 44.7062 -93.3540 215° Southwest 300 345 9,700 2,760 Climbing FlightAware ADS-B (KFCM)
11:27AM 44.6778 -93.3814 215° Southwest 325 374 10,700 2,580 Climbing FlightAware ADS-B (KSGS)
11:27AM 44.6574 -93.4006 214° Southwest 343 395 11,400 2,580 Climbing FlightAware ADS-B (KFCM)
11:27AM 44.6389 -93.4177 214° Southwest 355 409 12,000 3,300 Climbing FlightAware ADS-B (KSGS)
11:28AM 44.6046 -93.4510 215° Southwest 360 414 13,600 3,600 Climbing FlightAware ADS-B (KFCM)
11:28AM 44.5972 -93.4582 216° Southwest 362 417 13,800 3,300 Climbing FlightAware ADS-B (KSGS)
11:28AM 44.5556 -93.4983 215° Southwest 373 429 15,500 3,360 Climbing FlightAware ADS-B (KSGS)
11:29AM 44.5221 -93.5298 214° Southwest 381 438 17,000 3,360 Climbing FlightAware ADS-B (KFCM)
11:29AM 44.5114 -93.5398 214° Southwest 381 438 17,200 3,000 Climbing FlightAware ADS-B (KSGS)
11:29AM 44.4668 -93.5817 214° Southwest 391 450 18,700 2,820 Climbing FlightAware ADS-B (KSGS)
11:29AM 44.4590 -93.5890 214° Southwest 396 456 18,900 2,760 Climbing FlightAware ADS-B (KFCM)
11:30AM 44.4215 -93.6240 213° Southwest 403 464 20,100 2,880 Climbing FlightAware ADS-B (KSGS)
11:30AM 44.4047 -93.6379 210° Southwest 406 467 20,600 3,180 Climbing FlightAware ADS-B (KSGS)
11:30AM 44.3952 -93.6456 211° Southwest 405 466 20,900 2,880 Climbing FlightAware ADS-B (KFCM)
11:30AM 44.3560 -93.6772 210° Southwest 414 476 22,000 2,700 Climbing FlightAware ADS-B (KSGS)
11:31AM 44.3054 -93.7180 210° Southwest 418 481 23,400 2,760 Climbing FlightAware ADS-B (KSGS)
11:31AM 44.2559 -93.7577 211° Southwest 409 471 24,800 1,500 Climbing FlightAware ADS-B (KSGS)
11:32AM 44.2014 -93.8013 210° Southwest 410 472 25,000 240 Climbing FlightAware ADS-B (KFCM)
11:32AM 44.1903 -93.8102 211° Southwest 409 471 25,000  Level FlightAware ADS-B (KSGS)
11:33AM 44.1427 -93.8483 210° Southwest 410 472 25,000  Level FlightAware ADS-B (KSGS)
11:33AM 44.0924 -93.8886 210° Southwest 411 473 25,000  Level FlightAware ADS-B (KSGS)
11:33AM 44.0816 -93.8972 210° Southwest 412 474 25,000  Level FlightAware ADS-B (KFCM)
11:34AM 44.0425 -93.9284 210° Southwest 412 474 25,000  Level FlightAware ADS-B (KSGS)
11:34AM 43.9924 -93.9682 210° Southwest 412 474 25,000  Level FlightAware ADS-B (KSGS)
11:35AM 43.9426 -94.0078 210° Southwest 412 474 25,000  Level FlightAware ADS-B (KSGS)
11:36AM 43.7752 -94.1402 210° Southwest 412 474 25,000  Level FlightAware ADS-B (KSGS)
11:37AM 43.6991 -94.1996 207° Southwest 414 476 25,000  Level FlightAware ADS-B (KSGS)
11:37AM 43.6626 -94.2183 196° South 421 484 25,000  Level FlightAware ADS-B (KSGS)
11:38AM 43.6244 -94.2263 184° South 426 490 25,000  Level FlightAware ADS-B (KSGS)
11:38AM 43.5661 -94.2303 183° South 426 490 25,000  Level FlightAware ADS-B (KSGS)
11:39AM 43.5063 -94.2338 183° South 424 488 25,000  Level FlightAware ADS-B (KSGS)
11:39AM 43.4473 -94.2378 183° South 422 486 25,000  Level FlightAware ADS-B (KSGS)
11:40AM 43.3893 -94.2418 183° South 422 486 25,000  Level FlightAware ADS-B (KSGS)
11:40AM 43.3302 -94.2346 169° South 425 489 25,000  Level FlightAware ADS-B (KSGS)
11:41AM 43.2558 -94.2106 166° South 424 488 25,000  Level FlightAware ADS-B (KSGS)
11:41AM 43.2516 -94.2093 167° South 425 489 25,000  Level FlightAware ADS-B (KFOD)
11:41AM 43.1993 -94.1921 166° South 424 488 25,000  Level FlightAware ADS-B (KSGS)
11:42AM 43.1358 -94.1715 167° South 424 488 25,000  Level FlightAware ADS-B (KFOD)
11:43AM 43.0711 -94.1506 167° South 423 487 25,000  Level FlightAware ADS-B (KFOD)
11:43AM 42.9817 -94.1215 167° South 424 488 25,000  Level FlightAware ADS-B (KFOD)
11:44AM 42.9379 -94.1072 166° South 423 487 25,000  Level FlightAware ADS-B (KSGS)
11:44AM 42.9044 -94.0963 167° South 423 487 25,000 -240 Level FlightAware ADS-B (KFOD)
11:45AM 42.8290 -94.0720 167° South 419 482 24,800 -660 Descending FlightAware ADS-B (KFOD)
11:45AM 42.8132 -94.0669 166° South 423 487 24,500 -2,040 Descending FlightAware ADS-B (KSGS)
11:45AM 42.7604 -94.0500 167° South 410 472 23,600 -2,040 Descending FlightAware ADS-B (KFOD)
11:46AM 42.6834 -94.0253 167° South 404 465 22,100 -1,980 Descending FlightAware ADS-B (KFOD)
11:47AM 42.6075 -94.0010 167° South 396 456 20,800 -1,980 Descending FlightAware ADS-B (KFOD)
11:47AM 42.5386 -93.9789 167° South 386 444 19,500 -2,040 Descending FlightAware ADS-B (KFOD)
11:48AM 42.4798 -93.9601 167° South 378 435 18,200 -1,980 Descending FlightAware ADS-B (KFOD)
11:49AM 42.4009 -93.9350 167° South 371 427 16,900 -1,980 Descending FlightAware ADS-B (KFOD)
11:49AM 42.3335 -93.9136 167° South 366 421 15,500 -1,980 Descending FlightAware ADS-B (KFOD)
11:50AM 42.2687 -93.8913 163° South 359 413 14,300 -2,100 Descending FlightAware ADS-B (KFOD)
11:51AM 42.2145 -93.8681 163° South 361 415 12,700 -1,980 Descending FlightAware ADS-B (KFOD)
11:52AM 42.1102 -93.8252 163° South 345 397 11,000 -1,740 Descending FlightAware ADS-B (KFOD)
11:52AM 42.0530 -93.7959 159° South 332 382 9,900 -1,260 Descending FlightAware ADS-B (KFOD)
11:53AM 42.0254 -93.7822 160° South 314 361 9,800 -840 Descending FlightAware ADS-B (KFOD)
11:53AM 41.9724 -93.7561 160° South 302 348 9,100 -1,260 Descending FlightAware ADS-B (KFOD)
11:54AM 41.9486 -93.7439 159° South 289 333 8,100 -1,500 Descending FlightAware ADS-B (KFOD)
11:54AM 41.9013 -93.7191 159° South 281 323 7,600 -1,680 Descending FlightAware ADS-B (KFOD)
11:55AM 41.8654 -93.7011 159° South 282 325 6,900 -1,080 Descending FlightAware ADS-B (KFOD)
11:56AM 41.7455 -93.6408 159° South 282 325 5,300 -780 Descending FlightAware ADS-B (KFOD)
11:57AM 41.7025 -93.6072 159° South 211 243 4,900 -600 Descending Minneapolis Center
11:58AM 41.6878 -93.6114 192° South 218 251 4,700 -1,200 Descending Minneapolis Center
11:58AM 41.6481 -93.5808 150° Southeast 201 231 3,700 -1,200 Descending Minneapolis Center
11:59AM 41.6306 -93.5831 185° South 204 235 3,500 -900 Descending Minneapolis Center
11:59AM 41.6017 -93.5569 146° Southeast 164 189 2,800 -900 Descending Minneapolis Center
12:00PM 41.5864 -93.5661 204° Southwest 169 194 2,600 -900 Descending Minneapolis Center
12:00PM 41.5731 -93.5908 234° Southwest 146 168 1,900 -1,020 Descending Minneapolis Center
12:01PM 41.5589 -93.6131 230° Southwest 150 173 1,600 -780 Descending Minneapolis Center
12:02PM 41.5333 -93.6589 233° Southwest 150 173 900 -720 Descending Minneapolis Center
12:04PM 41.5333 -93.6500 North  Level FlightAware Approximate